createdAt,value
2023-06-13T00:00:49.939Z,998.11
2023-06-13T00:01:50.024Z,998.08
2023-06-13T00:02:51.032Z,998.07
2023-06-13T00:03:49.932Z,998.05
2023-06-13T00:04:50.909Z,998.06
2023-06-13T00:05:49.911Z,998.08
2023-06-13T00:06:49.908Z,998.09
2023-06-13T00:07:49.925Z,998.09
2023-06-13T00:08:49.875Z,998.09
2023-06-13T00:09:49.919Z,998.05
2023-06-13T00:10:49.883Z,997.97
2023-06-13T00:11:49.862Z,998.00
2023-06-13T00:12:49.843Z,998.04
2023-06-13T00:13:49.841Z,998.01
2023-06-13T00:14:49.856Z,998.03
2023-06-13T00:15:49.842Z,998.04
2023-06-13T00:16:49.826Z,998.00
2023-06-13T00:17:50.055Z,997.92
2023-06-13T00:18:49.875Z,998.05
2023-06-13T00:19:49.950Z,997.95
2023-06-13T00:20:49.794Z,998.03
2023-06-13T00:21:49.815Z,998.05
2023-06-13T00:22:49.809Z,998.05
2023-06-13T00:23:49.792Z,998.00
2023-06-13T00:24:49.805Z,998.00
2023-06-13T00:25:50.296Z,998.02
2023-06-13T00:26:49.780Z,998.02
2023-06-13T00:27:49.768Z,998.00
2023-06-13T00:28:49.761Z,997.98
2023-06-13T00:29:49.742Z,998.01
2023-06-13T00:30:49.752Z,998.01
2023-06-13T00:31:49.739Z,998.03
2023-06-13T00:32:49.784Z,997.99
2023-06-13T00:33:49.754Z,997.98
2023-06-13T00:34:49.718Z,997.99
2023-06-13T00:35:49.703Z,997.96
2023-06-13T00:36:49.722Z,998.00
2023-06-13T00:37:49.833Z,997.98
2023-06-13T00:38:49.783Z,998.04
2023-06-13T00:39:49.699Z,998.00
2023-06-13T00:40:49.679Z,997.95
2023-06-13T00:41:49.687Z,997.97
2023-06-13T00:42:49.678Z,997.98
2023-06-13T00:43:49.645Z,997.94
2023-06-13T00:44:49.681Z,998.04
2023-06-13T00:45:50.164Z,998.01
2023-06-13T00:46:49.753Z,998.03
2023-06-13T00:47:49.652Z,998.02
2023-06-13T00:48:49.616Z,997.95
2023-06-13T00:49:49.630Z,998.00
2023-06-13T00:50:49.639Z,997.97
2023-06-13T00:51:49.618Z,997.95
2023-06-13T00:52:49.626Z,997.97
2023-06-13T00:53:49.594Z,998.02
2023-06-13T00:54:49.600Z,998.03
2023-06-13T00:55:49.585Z,998.01
2023-06-13T00:56:49.550Z,998.01
2023-06-13T00:57:49.547Z,997.99
2023-06-13T00:58:49.545Z,998.03
2023-06-13T00:59:49.544Z,997.97
2023-06-13T01:00:49.549Z,998.00
2023-06-13T01:01:49.557Z,997.99
2023-06-13T01:02:49.590Z,998.00
2023-06-13T01:03:49.547Z,997.98
2023-06-13T01:04:49.576Z,997.98
2023-06-13T01:05:49.504Z,997.99
2023-06-13T01:06:49.496Z,998.01
2023-06-13T01:07:49.533Z,997.93
2023-06-13T01:08:49.482Z,997.91
2023-06-13T01:09:49.483Z,997.96
2023-06-13T01:10:49.480Z,997.95
2023-06-13T01:11:50.494Z,998.01
2023-06-13T01:12:49.484Z,997.99
2023-06-13T01:13:49.476Z,998.02
2023-06-13T01:14:49.446Z,998.04
2023-06-13T01:15:49.426Z,997.98
2023-06-13T01:16:49.560Z,998.00
2023-06-13T01:17:49.518Z,997.97
2023-06-13T01:18:49.429Z,997.93
2023-06-13T01:19:49.422Z,997.95
2023-06-13T01:20:49.434Z,997.93
2023-06-13T01:21:49.405Z,997.95
2023-06-13T01:22:49.404Z,997.94
2023-06-13T01:23:49.449Z,998.01
2023-06-13T01:24:49.364Z,997.93
2023-06-13T01:25:49.373Z,997.99
2023-06-13T01:26:49.359Z,998.02
2023-06-13T01:27:49.362Z,998.00
2023-06-13T01:28:49.361Z,997.96
2023-06-13T01:29:49.349Z,997.98
2023-06-13T01:30:49.354Z,997.98
2023-06-13T01:31:49.386Z,998.00
2023-06-13T01:32:49.376Z,997.97
2023-06-13T01:33:49.333Z,997.94
2023-06-13T01:34:49.297Z,998.00
2023-06-13T01:35:49.320Z,997.90
2023-06-13T01:36:49.309Z,997.98
2023-06-13T01:37:49.316Z,998.03
2023-06-13T01:38:49.292Z,997.96
2023-06-13T01:39:49.268Z,998.00
2023-06-13T01:40:49.269Z,997.93
2023-06-13T01:41:49.287Z,998.00
2023-06-13T01:42:49.295Z,997.95
2023-06-13T01:43:49.322Z,997.99
2023-06-13T01:44:49.219Z,997.96
2023-06-13T01:45:49.296Z,997.96
2023-06-13T01:46:49.246Z,997.87
2023-06-13T01:47:49.250Z,997.93
2023-06-13T01:48:49.216Z,997.91
2023-06-13T01:49:49.238Z,997.89
2023-06-13T01:50:49.191Z,997.92
2023-06-13T01:51:49.210Z,997.97
2023-06-13T01:52:49.220Z,997.93
2023-06-13T01:53:49.172Z,997.95
2023-06-13T01:54:49.165Z,997.95
2023-06-13T01:55:49.160Z,997.92
2023-06-13T01:56:49.165Z,997.93
2023-06-13T01:57:49.172Z,998.00
2023-06-13T01:58:49.154Z,997.99
2023-06-13T01:59:49.110Z,997.98
2023-06-13T02:00:49.120Z,998.01
2023-06-13T02:01:50.130Z,997.96
2023-06-13T02:02:49.217Z,998.01
2023-06-13T02:03:49.193Z,997.93
2023-06-13T02:04:49.098Z,998.02
2023-06-13T02:05:49.105Z,997.99
2023-06-13T02:06:49.089Z,997.97
2023-06-13T02:07:49.087Z,997.96
2023-06-13T02:08:49.100Z,997.91
2023-06-13T02:09:49.105Z,997.98
2023-06-13T02:10:49.122Z,997.98
2023-06-13T02:11:49.050Z,997.96
2023-06-13T02:12:49.079Z,997.95
2023-06-13T02:13:49.022Z,997.96
2023-06-13T02:14:49.018Z,997.96
2023-06-13T02:15:49.024Z,997.94
2023-06-13T02:16:49.075Z,997.92
2023-06-13T02:17:49.097Z,997.91
2023-06-13T02:18:49.045Z,997.93
2023-06-13T02:19:49.032Z,997.96
2023-06-13T02:20:48.979Z,997.91
2023-06-13T02:21:48.974Z,997.91
2023-06-13T02:22:48.988Z,997.95
2023-06-13T02:23:48.993Z,997.88
2023-06-13T02:24:48.958Z,997.93
2023-06-13T02:25:48.961Z,997.90
2023-06-13T02:26:48.969Z,997.92
2023-06-13T02:27:48.917Z,997.90
2023-06-13T02:28:48.972Z,997.96
2023-06-13T02:29:48.931Z,997.87
2023-06-13T02:30:48.922Z,997.92
2023-06-13T02:31:49.063Z,998.00
2023-06-13T02:32:48.941Z,997.98
2023-06-13T02:33:48.882Z,998.01
2023-06-13T02:34:48.898Z,998.05
2023-06-13T02:35:48.871Z,998.03
2023-06-13T02:36:48.877Z,998.01
2023-06-13T02:37:48.864Z,998.01
2023-06-13T02:38:48.850Z,998.05
2023-06-13T02:39:48.873Z,998.01
2023-06-13T02:40:48.879Z,998.01
2023-06-13T02:41:48.828Z,997.92
2023-06-13T02:42:48.887Z,997.99
2023-06-13T02:43:48.824Z,998.01
2023-06-13T02:44:48.816Z,997.98
2023-06-13T02:45:48.814Z,998.01
2023-06-13T02:46:48.790Z,997.97
2023-06-13T02:47:48.913Z,998.03
2023-06-13T02:48:48.918Z,997.95
2023-06-13T02:49:48.783Z,997.96
2023-06-13T02:50:48.806Z,998.03
2023-06-13T02:51:48.769Z,997.97
2023-06-13T02:52:51.688Z,998.03
2023-06-13T02:53:48.800Z,998.06
2023-06-13T02:54:48.755Z,998.02
2023-06-13T02:55:48.737Z,998.01
2023-06-13T02:56:48.804Z,998.00
2023-06-13T02:57:48.739Z,998.03
2023-06-13T02:58:48.737Z,998.01
2023-06-13T02:59:48.715Z,997.99
2023-06-13T03:00:48.761Z,997.98
2023-06-13T03:01:48.694Z,998.03
2023-06-13T03:02:48.776Z,998.01
2023-06-13T03:03:48.937Z,998.02
2023-06-13T03:04:48.694Z,997.99
2023-06-13T03:05:48.827Z,997.98
2023-06-13T03:06:48.688Z,997.97
2023-06-13T03:07:48.690Z,998.03
2023-06-13T03:08:48.678Z,997.97
2023-06-13T03:09:48.708Z,998.01
2023-06-13T03:10:48.623Z,997.98
2023-06-13T03:11:48.623Z,998.01
2023-06-13T03:12:48.624Z,997.98
2023-06-13T03:13:48.652Z,998.04
2023-06-13T03:14:48.636Z,998.04
2023-06-13T03:15:48.664Z,998.03
2023-06-13T03:16:48.697Z,998.04
2023-06-13T03:17:48.649Z,998.03
2023-06-13T03:18:48.600Z,998.06
2023-06-13T03:19:49.936Z,998.04
2023-06-13T03:20:48.565Z,998.02
2023-06-13T03:21:48.566Z,998.01
2023-06-13T03:22:48.565Z,998.01
2023-06-13T03:23:48.634Z,997.97
2023-06-13T03:24:48.541Z,997.99
2023-06-13T03:25:48.525Z,998.03
2023-06-13T03:26:48.568Z,998.05
2023-06-13T03:27:48.574Z,997.99
2023-06-13T03:28:48.568Z,998.09
2023-06-13T03:29:48.543Z,998.06
2023-06-13T03:30:48.532Z,998.04
2023-06-13T03:31:48.525Z,998.03
2023-06-13T03:32:48.584Z,998.03
2023-06-13T03:33:48.492Z,998.00
2023-06-13T03:34:48.506Z,998.02
2023-06-13T03:35:48.478Z,998.02
2023-06-13T03:36:48.485Z,998.02
2023-06-13T03:37:48.468Z,997.99
2023-06-13T03:38:48.519Z,998.02
2023-06-13T03:39:48.466Z,998.03
2023-06-13T03:40:48.450Z,997.98
2023-06-13T03:41:48.451Z,998.01
2023-06-13T03:42:48.423Z,997.97
2023-06-13T03:43:48.445Z,998.03
2023-06-13T03:44:48.486Z,998.02
2023-06-13T03:45:48.441Z,998.07
2023-06-13T03:46:48.405Z,998.02
2023-06-13T03:47:48.503Z,998.03
2023-06-13T03:48:48.555Z,998.03
2023-06-13T03:49:48.385Z,998.02
2023-06-13T03:50:48.382Z,998.06
2023-06-13T03:51:48.366Z,998.05
2023-06-13T03:52:49.362Z,998.00
2023-06-13T03:53:48.415Z,998.01
2023-06-13T03:54:48.356Z,998.07
2023-06-13T03:55:48.321Z,998.08
2023-06-13T03:56:48.308Z,997.98
2023-06-13T03:57:48.326Z,998.11
2023-06-13T03:58:48.339Z,998.05
2023-06-13T03:59:48.304Z,998.05
2023-06-13T04:00:48.290Z,998.02
2023-06-13T04:01:48.308Z,998.01
2023-06-13T04:02:48.354Z,998.10
2023-06-13T04:03:48.438Z,998.10
2023-06-13T04:04:48.277Z,998.07
2023-06-13T04:05:48.292Z,998.09
2023-06-13T04:06:48.249Z,998.12
2023-06-13T04:07:48.303Z,998.08
2023-06-13T04:08:48.304Z,998.08
2023-06-13T04:09:48.333Z,998.00
2023-06-13T04:10:48.260Z,997.99
2023-06-13T04:11:48.224Z,997.99
2023-06-13T04:12:48.236Z,998.00
2023-06-13T04:13:48.228Z,998.01
2023-06-13T04:14:48.292Z,998.04
2023-06-13T04:15:48.215Z,998.00
2023-06-13T04:16:48.246Z,998.08
2023-06-13T04:17:48.531Z,998.03
2023-06-13T04:18:49.191Z,998.09
2023-06-13T04:19:48.182Z,998.08
2023-06-13T04:20:48.175Z,998.07
2023-06-13T04:21:48.208Z,998.07
2023-06-13T04:22:48.180Z,998.11
2023-06-13T04:23:48.150Z,998.10
2023-06-13T04:24:48.252Z,998.10
2023-06-13T04:25:48.126Z,998.18
2023-06-13T04:26:48.120Z,998.13
2023-06-13T04:27:48.324Z,998.18
2023-06-13T04:28:48.109Z,998.13
2023-06-13T04:29:48.096Z,998.15
2023-06-13T04:30:48.120Z,998.12
2023-06-13T04:31:48.191Z,998.07
2023-06-13T04:32:49.129Z,998.17
2023-06-13T04:33:48.209Z,998.09
2023-06-13T04:34:48.155Z,998.02
2023-06-13T04:35:48.084Z,998.01
2023-06-13T04:36:49.041Z,998.13
2023-06-13T04:37:48.100Z,998.09
2023-06-13T04:38:48.046Z,998.09
2023-06-13T04:39:48.013Z,998.05
2023-06-13T04:40:48.083Z,998.11
2023-06-13T04:41:48.040Z,998.08
2023-06-13T04:42:48.006Z,998.04
2023-06-13T04:43:48.001Z,998.05
2023-06-13T04:44:48.055Z,998.09
2023-06-13T04:45:48.057Z,998.05
2023-06-13T04:46:47.975Z,998.07
2023-06-13T04:47:56.238Z,998.08
2023-06-13T04:48:49.942Z,998.05
2023-06-13T04:49:47.978Z,998.08
2023-06-13T04:50:48.101Z,998.05
2023-06-13T04:51:47.957Z,998.09
2023-06-13T04:52:47.945Z,998.12
2023-06-13T04:53:47.913Z,998.12
2023-06-13T04:54:47.925Z,998.11
2023-06-13T04:55:49.013Z,998.12
2023-06-13T04:56:47.928Z,998.21
2023-06-13T04:57:48.005Z,998.22
2023-06-13T04:58:47.925Z,998.11
2023-06-13T04:59:47.886Z,998.25
2023-06-13T05:00:47.943Z,998.19
2023-06-13T05:01:48.436Z,998.24
2023-06-13T05:02:50.779Z,998.18
2023-06-13T05:03:47.897Z,998.23
2023-06-13T05:04:47.892Z,998.25
2023-06-13T05:05:47.910Z,998.19
2023-06-13T05:06:47.847Z,998.29
2023-06-13T05:07:47.831Z,998.21
2023-06-13T05:08:47.881Z,998.21
2023-06-13T05:09:47.844Z,998.22
2023-06-13T05:10:47.805Z,998.23
2023-06-13T05:11:47.815Z,998.27
2023-06-13T05:12:47.793Z,998.28
2023-06-13T05:13:47.805Z,998.27
2023-06-13T05:14:47.792Z,998.29
2023-06-13T05:15:47.867Z,998.27
2023-06-13T05:16:47.768Z,998.29
2023-06-13T05:17:47.765Z,998.20
2023-06-13T05:18:48.340Z,998.26
2023-06-13T05:19:47.764Z,998.26
2023-06-13T05:20:48.761Z,998.23
2023-06-13T05:21:47.796Z,998.26
2023-06-13T05:22:47.744Z,998.26
2023-06-13T05:23:47.839Z,998.27
2023-06-13T05:24:47.717Z,998.27
2023-06-13T05:25:47.701Z,998.23
2023-06-13T05:26:47.741Z,998.28
2023-06-13T05:27:47.729Z,998.25
2023-06-13T05:28:47.694Z,998.26
2023-06-13T05:29:47.695Z,998.30
2023-06-13T05:30:47.749Z,998.33
2023-06-13T05:31:47.749Z,998.27
2023-06-13T05:32:47.774Z,998.28
2023-06-13T05:33:47.649Z,998.32
2023-06-13T05:34:47.668Z,998.27
2023-06-13T05:35:57.201Z,998.34
2023-06-13T05:36:49.679Z,998.39
2023-06-13T05:37:47.657Z,998.37
2023-06-13T05:38:47.669Z,998.32
2023-06-13T05:39:47.620Z,998.29
2023-06-13T05:40:47.612Z,998.34
2023-06-13T05:41:47.631Z,998.32
2023-06-13T05:42:47.627Z,998.40
2023-06-13T05:43:47.623Z,998.34
2023-06-13T05:44:47.610Z,998.39
2023-06-13T05:45:47.696Z,998.38
2023-06-13T05:46:47.704Z,998.37
2023-06-13T05:47:47.674Z,998.36
2023-06-13T05:48:47.715Z,998.38
2023-06-13T05:49:47.636Z,998.37
2023-06-13T05:50:47.613Z,998.32
2023-06-13T05:51:47.624Z,998.37
2023-06-13T05:52:47.556Z,998.31
2023-06-13T05:53:47.699Z,998.41
2023-06-13T05:54:47.518Z,998.45
2023-06-13T05:55:47.593Z,998.42
2023-06-13T05:56:47.513Z,998.40
2023-06-13T05:57:47.532Z,998.39
2023-06-13T05:58:47.555Z,998.38
2023-06-13T05:59:47.537Z,998.39
2023-06-13T06:00:47.518Z,998.40
2023-06-13T06:01:47.491Z,998.35
2023-06-13T06:02:47.767Z,998.33
2023-06-13T06:03:47.548Z,998.36
2023-06-13T06:04:47.574Z,998.29
2023-06-13T06:05:47.478Z,998.35
2023-06-13T06:06:47.442Z,998.34
2023-06-13T06:07:47.449Z,998.40
2023-06-13T06:08:47.446Z,998.35
2023-06-13T06:09:47.435Z,998.31
2023-06-13T06:10:47.444Z,998.31
2023-06-13T06:11:47.440Z,998.39
2023-06-13T06:12:47.407Z,998.34
2023-06-13T06:13:47.425Z,998.32
2023-06-13T06:14:47.400Z,998.38
2023-06-13T06:15:47.441Z,998.37
2023-06-13T06:16:47.413Z,998.33
2023-06-13T06:17:47.534Z,998.31
2023-06-13T06:18:47.613Z,998.36
2023-06-13T06:19:47.379Z,998.23
2023-06-13T06:20:47.400Z,998.29
2023-06-13T06:21:47.373Z,998.31
2023-06-13T06:22:47.408Z,998.33
2023-06-13T06:23:47.408Z,998.30
2023-06-13T06:24:47.328Z,998.33
2023-06-13T06:25:47.330Z,998.29
2023-06-13T06:26:47.336Z,998.31
2023-06-13T06:27:47.347Z,998.33
2023-06-13T06:28:47.347Z,998.34
2023-06-13T06:29:47.299Z,998.32
2023-06-13T06:30:47.325Z,998.35
2023-06-13T06:31:47.275Z,998.33
2023-06-13T06:32:47.314Z,998.37
2023-06-13T06:33:47.286Z,998.33
2023-06-13T06:34:47.291Z,998.34
2023-06-13T06:35:47.272Z,998.32
2023-06-13T06:36:47.328Z,998.34
2023-06-13T06:37:47.253Z,998.42
2023-06-13T06:38:47.295Z,998.33
2023-06-13T06:39:47.228Z,998.31
2023-06-13T06:40:47.282Z,998.38
2023-06-13T06:41:47.248Z,998.34
2023-06-13T06:42:47.227Z,998.36
2023-06-13T06:43:47.213Z,998.38
2023-06-13T06:44:47.256Z,998.35
2023-06-13T06:45:47.230Z,998.35
2023-06-13T06:46:47.246Z,998.32
2023-06-13T06:47:47.233Z,998.33
2023-06-13T06:48:47.223Z,998.31
2023-06-13T06:49:47.170Z,998.25
2023-06-13T06:50:47.170Z,998.30
2023-06-13T06:51:47.175Z,998.28
2023-06-13T06:52:47.251Z,998.31
2023-06-13T06:53:47.136Z,998.33
2023-06-13T06:54:47.154Z,998.35
2023-06-13T06:55:47.141Z,998.25
2023-06-13T06:56:47.166Z,998.29
2023-06-13T06:57:47.130Z,998.33
2023-06-13T06:58:47.119Z,998.30
2023-06-13T06:59:47.105Z,998.35
2023-06-13T07:00:47.191Z,998.29
2023-06-13T07:01:47.135Z,998.37
2023-06-13T07:02:47.143Z,998.28
2023-06-13T07:03:47.120Z,998.30
2023-06-13T07:04:47.063Z,998.30
2023-06-13T07:05:47.117Z,998.26
2023-06-13T07:06:47.095Z,998.26
2023-06-13T07:07:47.064Z,998.22
2023-06-13T07:08:47.060Z,998.17
2023-06-13T07:09:48.039Z,998.18
2023-06-13T07:10:47.463Z,998.14
2023-06-13T07:11:47.026Z,998.17
2023-06-13T07:12:47.019Z,998.12
2023-06-13T07:13:47.053Z,998.17
2023-06-13T07:14:47.054Z,998.17
2023-06-13T07:15:47.054Z,998.13
2023-06-13T07:16:47.072Z,998.15
2023-06-13T07:17:47.036Z,998.20
2023-06-13T07:18:46.969Z,998.25
2023-06-13T07:19:46.992Z,998.17
2023-06-13T07:20:47.032Z,998.14
2023-06-13T07:21:47.069Z,998.19
2023-06-13T07:22:47.005Z,998.21
2023-06-13T07:24:01.530Z,998.15
2023-06-13T07:24:48.972Z,998.19
2023-06-13T07:25:46.965Z,998.22
2023-06-13T07:26:47.012Z,998.19
2023-06-13T07:27:46.996Z,998.23
2023-06-13T07:28:47.944Z,998.17
2023-06-13T07:29:46.953Z,998.21
2023-06-13T07:30:46.926Z,998.23
2023-06-13T07:31:46.968Z,998.19
2023-06-13T07:32:47.000Z,998.17
2023-06-13T07:33:46.921Z,998.20
2023-06-13T07:35:03.915Z,998.12
2023-06-13T07:35:48.868Z,998.20
2023-06-13T07:36:46.853Z,998.24
2023-06-13T07:37:46.936Z,998.23
2023-06-13T07:38:46.946Z,998.21
2023-06-13T07:39:46.875Z,998.27
2023-06-13T07:40:46.856Z,998.22
2023-06-13T07:41:46.826Z,998.25
2023-06-13T07:42:46.841Z,998.21
2023-06-13T07:43:46.834Z,998.24
2023-06-13T07:44:46.909Z,998.21
2023-06-13T07:45:46.866Z,998.20
2023-06-13T07:46:46.805Z,998.21
2023-06-13T07:47:46.849Z,998.25
2023-06-13T07:48:46.781Z,998.26
2023-06-13T07:49:46.821Z,998.19
2023-06-13T07:50:46.794Z,998.15
2023-06-13T07:51:46.766Z,998.17
2023-06-13T07:52:47.074Z,998.19
2023-06-13T07:53:46.787Z,998.13
2023-06-13T07:54:46.769Z,998.08
2023-06-13T07:55:46.822Z,998.13
2023-06-13T07:56:46.724Z,998.14
2023-06-13T07:57:59.113Z,998.10
2023-06-13T07:58:48.732Z,998.11
2023-06-13T07:59:46.739Z,998.07
2023-06-13T08:00:46.711Z,998.04
2023-06-13T08:01:46.759Z,998.09
2023-06-13T08:02:46.948Z,998.07
2023-06-13T08:03:46.905Z,998.06
2023-06-13T08:04:54.052Z,997.95
2023-06-13T08:05:48.681Z,998.03
2023-06-13T08:06:46.649Z,998.02
2023-06-13T08:07:46.661Z,998.07
2023-06-13T08:08:46.654Z,998.10
2023-06-13T08:09:46.689Z,998.02
2023-06-13T08:10:46.643Z,998.00
2023-06-13T08:11:46.630Z,998.00
2023-06-13T08:12:46.628Z,998.02
2023-06-13T08:13:46.655Z,998.02
2023-06-13T08:14:47.432Z,998.03
2023-06-13T08:15:46.651Z,998.11
2023-06-13T08:16:48.500Z,998.06
2023-06-13T08:17:46.625Z,997.97
2023-06-13T08:18:46.631Z,998.08
2023-06-13T08:19:46.572Z,998.05
2023-06-13T08:20:46.636Z,998.00
2023-06-13T08:21:46.580Z,998.05
2023-06-13T08:22:46.568Z,998.05
2023-06-13T08:23:46.605Z,998.11
2023-06-13T08:24:46.561Z,998.05
2023-06-13T08:25:46.738Z,998.10
2023-06-13T08:26:46.551Z,998.09
2023-06-13T08:27:46.534Z,998.05
2023-06-13T08:28:46.553Z,997.98
2023-06-13T08:29:46.527Z,997.95
2023-06-13T08:30:46.569Z,998.00
2023-06-13T08:31:49.815Z,997.99
2023-06-13T08:32:47.721Z,997.95
2023-06-13T08:34:03.023Z,997.99
2023-06-13T08:34:48.521Z,997.92
2023-06-13T08:35:46.552Z,997.98
2023-06-13T08:36:46.504Z,997.97
2023-06-13T08:37:46.478Z,997.92
2023-06-13T08:38:51.275Z,997.97
2023-06-13T08:39:48.476Z,997.88
2023-06-13T08:40:46.439Z,997.94
2023-06-13T08:41:46.458Z,997.88
2023-06-13T08:42:46.522Z,997.95
2023-06-13T08:43:46.445Z,997.92
2023-06-13T08:44:46.460Z,997.79
2023-06-13T08:45:46.432Z,997.78
2023-06-13T08:46:46.521Z,997.82
2023-06-13T08:47:46.618Z,997.73
2023-06-13T08:48:46.447Z,997.80
2023-06-13T08:49:46.449Z,997.73
2023-06-13T08:50:46.493Z,997.76
2023-06-13T08:51:46.375Z,997.89
2023-06-13T08:52:46.383Z,997.87
2023-06-13T08:53:47.364Z,997.86
2023-06-13T08:55:02.229Z,997.87
2023-06-13T08:56:47.355Z,997.77
2023-06-13T08:57:46.348Z,997.80
2023-06-13T08:58:46.328Z,997.73
2023-06-13T08:59:46.351Z,997.70
2023-06-13T09:00:46.318Z,997.70
2023-06-13T09:01:46.314Z,997.70
2023-06-13T09:02:46.434Z,997.74
2023-06-13T09:03:46.381Z,997.72
2023-06-13T09:04:46.305Z,997.73
2023-06-13T09:05:46.346Z,997.67
2023-06-13T09:06:46.309Z,997.80
2023-06-13T09:07:46.289Z,997.75
2023-06-13T09:08:46.288Z,997.76
2023-06-13T09:09:46.264Z,997.76
2023-06-13T09:10:46.268Z,997.78
2023-06-13T09:11:47.383Z,997.68
2023-06-13T09:12:46.274Z,997.75
2023-06-13T09:13:46.283Z,997.75
2023-06-13T09:14:46.328Z,997.60
2023-06-13T09:15:46.277Z,997.78
2023-06-13T09:16:46.394Z,997.78
2023-06-13T09:17:46.368Z,997.73
2023-06-13T09:18:46.253Z,997.73
2023-06-13T09:19:46.196Z,997.68
2023-06-13T09:20:46.198Z,997.72
2023-06-13T09:21:46.193Z,997.70
2023-06-13T09:22:46.207Z,997.64
2023-06-13T09:23:46.223Z,997.68
2023-06-13T09:24:46.161Z,997.63
2023-06-13T09:25:46.182Z,997.58
2023-06-13T09:26:46.183Z,997.62
2023-06-13T09:27:46.152Z,997.63
2023-06-13T09:28:46.175Z,997.57
2023-06-13T09:29:46.156Z,997.57
2023-06-13T09:30:46.164Z,997.49
2023-06-13T09:31:46.134Z,997.53
2023-06-13T09:32:46.183Z,997.53
2023-06-13T09:33:46.211Z,997.54
2023-06-13T09:34:46.127Z,997.56
2023-06-13T09:35:46.119Z,997.53
2023-06-13T09:36:46.161Z,997.50
2023-06-13T09:37:46.172Z,997.48
2023-06-13T09:38:46.084Z,997.38
2023-06-13T09:39:46.709Z,997.41
2023-06-13T09:40:46.134Z,997.53
2023-06-13T09:41:46.113Z,997.47
2023-06-13T09:42:56.421Z,997.42
2023-06-13T09:43:48.072Z,997.49
2023-06-13T09:45:48.074Z,997.38
2023-06-13T09:46:46.083Z,997.40
2023-06-13T09:47:46.214Z,997.32
2023-06-13T09:48:46.099Z,997.21
2023-06-13T09:50:48.057Z,997.28
2023-06-13T09:51:46.085Z,997.23
2023-06-13T09:52:46.010Z,997.20
2023-06-13T09:53:46.037Z,997.15
2023-06-13T09:54:46.050Z,997.20
2023-06-13T09:55:46.013Z,997.19
2023-06-13T09:56:46.022Z,997.28
2023-06-13T09:58:08.017Z,997.30
2023-06-13T09:58:48.022Z,997.33
2023-06-13T09:59:45.977Z,997.36
2023-06-13T10:00:47.001Z,997.25
2023-06-13T10:01:46.038Z,997.30
2023-06-13T10:02:46.026Z,997.07
2023-06-13T10:03:46.019Z,997.08
2023-06-13T10:04:46.018Z,997.10
2023-06-13T10:05:45.945Z,997.15
2023-06-13T10:06:46.131Z,997.03
2023-06-13T10:07:45.966Z,997.08
2023-06-13T10:08:45.945Z,997.01
2023-06-13T10:09:45.986Z,997.06
2023-06-13T10:10:45.938Z,997.20
2023-06-13T10:11:45.935Z,997.21
2023-06-13T10:12:45.942Z,997.14
2023-06-13T10:13:45.934Z,997.01
2023-06-13T10:14:46.040Z,996.97
2023-06-13T10:15:45.991Z,996.95
2023-06-13T10:16:58.711Z,996.88
2023-06-13T10:17:47.946Z,996.91
2023-06-13T10:18:45.934Z,996.91
2023-06-13T10:19:45.946Z,996.90
2023-06-13T10:20:45.976Z,996.90
2023-06-13T10:21:51.885Z,996.91
2023-06-13T10:22:47.891Z,997.00
2023-06-13T10:23:45.892Z,996.97
2023-06-13T10:24:45.890Z,996.97
2023-06-13T10:25:45.845Z,996.97
2023-06-13T10:26:45.849Z,996.86
2023-06-13T10:27:45.861Z,996.86
2023-06-13T10:28:45.849Z,996.92
2023-06-13T10:29:45.836Z,996.80
2023-06-13T10:30:45.859Z,996.86
2023-06-13T10:31:45.862Z,996.87
2023-06-13T10:32:45.857Z,997.07
2023-06-13T10:33:45.837Z,997.06
2023-06-13T10:34:45.815Z,997.08
2023-06-13T10:35:45.839Z,997.06
2023-06-13T10:36:46.199Z,996.93
2023-06-13T10:37:45.785Z,996.81
2023-06-13T10:38:45.783Z,996.86
2023-06-13T10:39:45.794Z,997.06
2023-06-13T10:40:45.767Z,997.07
2023-06-13T10:41:45.778Z,996.95
2023-06-13T10:42:45.767Z,997.03
2023-06-13T10:43:45.781Z,997.06
2023-06-13T10:44:45.819Z,997.02
2023-06-13T10:45:45.772Z,997.02
2023-06-13T10:46:45.733Z,997.03
2023-06-13T10:47:45.740Z,997.01
2023-06-13T10:48:45.738Z,997.01
2023-06-13T10:49:45.823Z,997.11
2023-06-13T10:50:45.736Z,997.06
2023-06-13T10:51:45.699Z,997.07
2023-06-13T10:52:45.714Z,997.07
2023-06-13T10:53:45.696Z,997.07
2023-06-13T10:54:45.703Z,996.97
2023-06-13T10:55:45.732Z,997.00
2023-06-13T10:56:45.691Z,997.04
2023-06-13T10:57:45.693Z,996.83
2023-06-13T10:58:45.674Z,996.99
2023-06-13T10:59:45.678Z,996.95
2023-06-13T11:00:45.674Z,996.93
2023-06-13T11:01:45.700Z,996.97
2023-06-13T11:02:45.710Z,996.90
2023-06-13T11:03:45.712Z,996.86
2023-06-13T11:04:46.632Z,996.87
2023-06-13T11:05:46.933Z,996.73
2023-06-13T11:06:45.610Z,996.87
2023-06-13T11:07:45.725Z,996.75
2023-06-13T11:08:45.668Z,996.88
2023-06-13T11:09:45.587Z,996.74
2023-06-13T11:10:45.646Z,996.63
2023-06-13T11:11:45.617Z,996.68
2023-06-13T11:12:45.718Z,996.66
2023-06-13T11:13:45.575Z,996.60
2023-06-13T11:14:45.639Z,996.57
2023-06-13T11:15:45.550Z,996.52
2023-06-13T11:16:45.604Z,996.53
2023-06-13T11:17:47.149Z,996.52
2023-06-13T11:18:45.614Z,996.51
2023-06-13T11:19:45.522Z,996.52
2023-06-13T11:20:45.513Z,996.68
2023-06-13T11:21:45.524Z,996.39
2023-06-13T11:22:45.536Z,996.47
2023-06-13T11:23:45.536Z,996.33
2023-06-13T11:24:45.537Z,996.39
2023-06-13T11:25:45.519Z,996.58
2023-06-13T11:26:45.518Z,996.56
2023-06-13T11:27:45.492Z,996.55
2023-06-13T11:28:45.479Z,996.57
2023-06-13T11:29:45.489Z,996.31
2023-06-13T11:30:45.617Z,996.34
2023-06-13T11:31:45.539Z,996.42
2023-06-13T11:32:45.484Z,996.49
2023-06-13T11:33:45.442Z,996.52
2023-06-13T11:34:45.455Z,996.48
2023-06-13T11:35:45.447Z,996.45
2023-06-13T11:36:45.450Z,996.33
2023-06-13T11:37:45.622Z,996.47
2023-06-13T11:38:45.433Z,996.35
2023-06-13T11:39:46.771Z,996.24
2023-06-13T11:40:47.412Z,996.24
2023-06-13T11:41:45.448Z,996.26
2023-06-13T11:42:45.422Z,996.32
2023-06-13T11:43:45.418Z,996.31
2023-06-13T11:44:45.436Z,996.32
2023-06-13T11:45:45.410Z,996.31
2023-06-13T11:46:45.472Z,996.26
2023-06-13T11:47:45.498Z,996.36
2023-06-13T11:48:51.605Z,996.34
2023-06-13T11:49:47.396Z,996.35
2023-06-13T11:50:45.371Z,996.41
2023-06-13T11:51:45.393Z,996.39
2023-06-13T11:52:45.432Z,996.37
2023-06-13T11:53:45.326Z,996.35
2023-06-13T11:54:45.366Z,996.38
2023-06-13T11:55:45.373Z,996.30
2023-06-13T11:56:45.305Z,996.27
2023-06-13T11:57:45.337Z,996.19
2023-06-13T11:58:45.297Z,996.12
2023-06-13T11:59:45.300Z,996.04
2023-06-13T12:00:45.366Z,996.07
2023-06-13T12:01:45.435Z,996.01
2023-06-13T12:02:45.617Z,996.13
2023-06-13T12:03:45.361Z,996.15
2023-06-13T12:04:50.055Z,996.07
2023-06-13T12:05:47.312Z,996.25
2023-06-13T12:06:45.246Z,996.11
2023-06-13T12:07:45.271Z,996.31
2023-06-13T12:08:45.262Z,996.30
2023-06-13T12:09:45.222Z,996.26
2023-06-13T12:10:45.922Z,996.27
2023-06-13T12:11:45.221Z,996.24
2023-06-13T12:12:45.225Z,996.34
2023-06-13T12:13:45.236Z,996.24
2023-06-13T12:14:45.305Z,996.19
2023-06-13T12:15:45.174Z,996.21
2023-06-13T12:16:45.192Z,996.15
2023-06-13T12:17:45.592Z,996.18
2023-06-13T12:18:46.161Z,996.22
2023-06-13T12:19:45.312Z,996.15
2023-06-13T12:20:45.140Z,996.06
2023-06-13T12:21:45.198Z,996.06
2023-06-13T12:22:45.114Z,996.03
2023-06-13T12:23:45.173Z,996.08
2023-06-13T12:24:45.204Z,996.01
2023-06-13T12:25:45.104Z,996.02
2023-06-13T12:26:45.189Z,996.03
2023-06-13T12:27:47.056Z,996.02
2023-06-13T12:28:45.147Z,996.03
2023-06-13T12:29:45.133Z,996.05
2023-06-13T12:30:45.134Z,995.99
2023-06-13T12:31:45.160Z,995.87